Latest Weather Observations for Cairns Racecourse

IDQ60801

Issued at 10:02 pm EST Tuesday 28 March 2017 (issued every 30 minutes, with the page automatically refreshed every 10 minutes)

About weather observations | Map of weather stations | Latest weather observations for QLD | Other Formats
Station Details ID: 031222 Name: CAIRNS RACECOURSE Lat: -16.95 Lon: 145.75 Height: 4.1 m
Data from the previous 72 hours. | See also: Recent months at Cairns Racecourse
Date/Time
EST
Temp
°C
App
Temp
°C
Dew
Point
°C
Rel
Hum
%
Delta-T
°C
Wind Press
QNH
hPa
Press
MSL
hPa
Rain since
9am
mm
Dir  Spd
km/h
Gust
km/h
Spd
kts
Gust
kts
28/10:00pm 32.0 34.7 22.1 55 6.7 NNW 11 20 6 11 - - 0.0
28/09:30pm 31.3 35.3 23.1 61 5.6 NW 7 13 4 7 - - 0.0
28/09:00pm 31.4 35.8 23.8 64 5.3 N 7 11 4 6 - - 0.0
28/08:30pm 31.1 36.1 25.4 71 4.0 N 9 15 5 8 - - 0.0
28/08:00pm 31.2 36.5 25.3 71 4.2 N 7 11 4 6 - - 0.0
28/07:30pm 31.5 36.4 24.4 66 5.0 NNW 6 9 3 5 - - 0.0
28/07:00pm 32.1 36.7 24.2 63 5.5 N 7 11 4 6 - - 0.0
28/06:30pm 32.4 37.1 23.4 59 6.2 WNW 4 9 2 5 - - 0.0
28/06:00pm 33.5 37.1 22.0 51 7.8 WNW 6 15 3 8 - - 0.0
28/05:30pm 34.3 37.2 21.7 47 8.6 WNW 9 15 5 8 - - 0.0
28/05:00pm 35.4 38.1 21.3 44 9.6 NNW 9 19 5 10 - - 0.0
28/04:30pm 36.5 40.1 22.3 44 9.8 WNW 7 11 4 6 - - 0.0
28/04:00pm 36.6 38.8 21.2 40 10.5 WNW 11 24 6 13 - - 0.0
28/03:30pm 36.1 37.0 21.5 42 10.0 WNW 19 24 10 13 - - 0.0
28/03:00pm 36.3 38.2 22.8 45 9.4 W 17 28 9 15 - - 0.0
28/02:30pm 36.2 38.7 22.4 45 9.5 W 13 24 7 13 - - 0.0
28/02:00pm 35.8 37.7 23.4 48 8.6 W 19 28 10 15 - - 0.0
28/01:30pm 35.3 36.6 21.6 45 9.3 W 17 30 9 16 - - 0.0
28/01:00pm 35.3 39.0 23.3 50 8.3 WSW 9 22 5 12 - - 0.0
28/12:30pm 35.1 38.4 23.8 52 7.9 NNW 13 32 7 17 - - 0.0
28/12:00pm 34.3 35.6 22.7 50 8.0 W 20 35 11 19 - - 0.0
28/11:30am 33.8 34.1 22.2 50 7.9 WSW 24 37 13 20 - - 0.0
28/11:00am 33.5 35.3 23.5 55 6.9 WNW 20 32 11 17 - - 0.0
28/10:30am 32.4 33.1 22.2 55 7.0 W 22 37 12 20 - - 0.0
28/10:00am 32.2 34.4 23.2 59 6.2 W 17 32 9 17 - - 0.0
28/09:30am 31.2 33.0 22.5 60 5.9 W 17 32 9 17 - - 0.0
28/09:00am 30.6 31.8 22.2 61 5.7 WNW 19 30 10 16 - - 0.0
28/08:30am 30.0 31.0 22.2 63 5.3 W 20 41 11 22 - - 0.0
28/08:00am 29.3 30.9 21.5 63 5.2 W 15 26 8 14 - - 0.0
28/07:30am 27.8 31.1 21.8 70 4.0 WSW 7 20 4 11 - - 0.0
28/07:00am 27.1 30.0 21.8 73 3.5 WNW 9 17 5 9 - - 0.0
28/06:30am 24.6 28.8 23.4 93 0.8 E 7 9 4 5 - - 0.0
28/06:00am 25.0 29.6 22.5 86 1.7 SE 2 6 1 3 - - 0.0
28/05:30am 24.0 28.7 22.6 92 0.9 SSE 2 7 1 4 - - 0.0
28/05:00am 24.3 29.5 22.9 92 0.9 CALM 0 0 0 0 - - 0.0
28/04:30am 24.6 29.7 23.4 93 0.8 SSE 2 7 1 4 - - 0.0
28/04:00am 24.4 28.5 23.0 92 0.9 ESE 6 7 3 4 - - 0.0
28/03:30am 24.0 28.8 22.1 89 1.3 CALM 0 9 0 5 - - 0.0
28/03:00am 24.5 29.1 22.4 88 1.4 SSW 2 9 1 5 - - 0.0
28/02:30am 24.7 29.3 23.1 91 1.1 SW 4 11 2 6 - - 0.0
28/02:00am 24.9 30.5 23.5 92 1.0 CALM 0 0 0 0 - - 0.0
28/01:30am 25.5 31.1 24.3 93 0.8 NW 2 9 1 5 - - 0.0
28/01:00am 25.5 30.2 23.9 91 1.1 SSW 6 9 3 5 - - 0.0
28/12:30am 25.9 30.6 24.3 91 1.1 S 7 9 4 5 - - 0.0
28/12:00am 26.0 30.9 24.6 92 1.0 S 7 7 4 4 - - 0.0
 
Date/Time
EST
Temp
°C
App
Temp
°C
Dew
Point
°C
Rel
Hum
%
Delta-T
°C
Wind Press
QNH
hPa
Press
MSL
hPa
Rain since
9am
mm
Dir  Spd
km/h
Gust
km/h
Spd
kts
Gust
kts
27/11:30pm 25.9 31.4 24.1 90 1.2 SSE 2 9 1 5 - - 0.0
27/11:00pm 26.1 32.1 24.3 90 1.2 CALM 0 7 0 4 - - 0.0
27/10:30pm 27.1 32.2 24.7 87 1.7 SSE 6 9 3 5 - - 0.0
27/10:00pm 27.2 31.8 24.7 86 1.7 SSE 9 13 5 7 - - 0.0
27/09:30pm 27.5 32.2 24.9 86 1.8 S 9 11 5 6 - - 0.0
27/09:00pm 27.2 32.5 25.0 88 1.5 S 6 11 3 6 - - 0.0
27/08:30pm 27.4 34.0 25.2 88 1.5 CALM 0 0 0 0 - - 0.0
27/08:00pm 28.2 34.9 25.4 85 2.0 CALM 0 0 0 0 - - 0.0
27/07:30pm 28.5 35.3 25.5 84 2.1 CALM 0 4 0 2 - - 0.0
27/07:00pm 29.5 35.6 25.7 80 2.7 N 4 7 2 4 - - 0.0
27/06:30pm 29.8 35.7 25.3 77 3.2 N 4 11 2 6 - - 0.0
27/06:00pm 30.7 36.5 25.1 72 3.9 N 4 9 2 5 - - 0.0
27/05:30pm 31.2 36.2 24.8 69 4.5 NNE 7 13 4 7 - - 0.0
27/05:00pm 31.8 36.2 24.4 65 5.2 NNE 9 17 5 9 - - 0.0
27/04:30pm 32.4 36.1 23.9 61 5.9 NE 11 17 6 9 - - 0.0
27/04:00pm 32.9 36.9 24.4 61 6.0 NNE 11 17 6 9 - - 0.0
27/03:30pm 32.7 36.8 24.5 62 5.8 NE 11 20 6 11 - - 0.0
27/03:00pm 33.5 37.8 24.9 60 6.1 NNE 11 17 6 9 - - 0.0
27/02:30pm 33.5 36.6 22.9 53 7.3 N 11 19 6 10 - - 0.0
27/02:00pm 33.7 37.1 23.4 55 7.2 NNE 11 20 6 11 - - 0.0
27/01:30pm 34.2 38.3 23.2 52 7.6 E 7 11 4 6 - - 0.0
27/01:00pm 33.4 37.1 22.2 52 7.7 ESE 6 9 3 5 - - 0.0
27/12:30pm 33.0 38.4 23.9 59 6.3 SE 2 6 1 3 - - 0.0
27/12:00pm 31.9 36.3 21.4 53 7.1 CALM 0 0 0 0 - - 0.0
27/11:30am 31.4 34.6 21.6 56 6.6 ENE 7 11 4 6 - - 0.0
27/11:00am 31.7 35.6 23.0 60 6.0 NNW 7 11 4 6 - - 0.0
27/10:30am 30.0 34.0 22.7 65 5.0 NNW 6 9 3 5 - - 0.0
27/10:00am 29.6 34.9 23.1 68 4.5 CALM 0 6 0 3 - - 0.0
27/09:30am 29.1 33.9 22.8 69 4.3 ESE 2 6 1 3 - - 0.0
27/09:00am 27.9 33.0 22.6 73 3.6 CALM 0 0 0 0 - - -
27/08:30am 26.7 30.6 23.0 80 2.5 S 7 9 4 5 - - -
27/08:00am 25.5 30.0 23.7 90 1.2 WSW 6 9 3 5 - - -
27/07:30am 24.5 29.9 23.3 93 0.8 CALM 0 2 0 1 - - -
27/07:00am 23.8 29.0 22.8 94 0.7 CALM 0 0 0 0 - - -
27/06:30am 23.4 27.2 22.4 94 0.7 W 6 7 3 4 - - -
27/06:00am 23.3 28.2 22.3 94 0.7 CALM 0 0 0 0 - - -
27/05:30am 23.5 28.4 22.3 93 0.8 CALM 0 0 0 0 - - -
27/05:00am 23.8 28.2 22.8 94 0.7 WNW 4 7 2 4 - - -
27/04:30am 24.2 29.6 23.2 94 0.7 CALM 0 0 0 0 - - -
27/04:00am 24.2 28.8 23.2 94 0.7 SSE 4 7 2 4 - - -
27/03:30am 24.4 28.6 23.4 94 0.7 SW 7 9 4 5 - - -
27/03:00am 24.2 29.6 23.2 94 0.7 CALM 0 0 0 0 - - 0.0
27/02:30am 24.4 29.9 23.4 94 0.7 CALM 0 0 0 0 - - -
27/02:00am 24.5 28.8 23.3 93 0.8 SSW 6 7 3 4 - - -
27/01:30am 24.3 29.5 22.9 92 0.9 CALM 0 0 0 0 - - -
27/01:00am 24.6 30.0 23.2 92 0.9 CALM 0 0 0 0 - - -
27/12:30am 24.6 29.9 23.0 91 1.1 CALM 0 0 0 0 - - -
27/12:00am 24.9 29.2 23.3 91 1.1 S 6 7 3 4 - - -
 
Date/Time
EST
Temp
°C
App
Temp
°C
Dew
Point
°C
Rel
Hum
%
Delta-T
°C
Wind Press
QNH
hPa
Press
MSL
hPa
Rain since
9am
mm
Dir  Spd
km/h
Gust
km/h
Spd
kts
Gust
kts
26/11:30pm 25.2 30.8 23.6 91 1.1 CALM 0 0 0 0 - - -
26/11:00pm 25.3 31.0 23.7 91 1.1 CALM 0 0 0 0 - - -
26/10:30pm 25.6 31.3 23.7 89 1.3 CALM 0 0 0 0 - - -
26/10:00pm 26.3 31.7 23.8 86 1.7 NNW 2 6 1 3 - - -
26/09:30pm 26.4 32.2 23.9 86 1.7 CALM 0 0 0 0 - - -
26/09:00pm 26.6 32.0 23.3 82 2.3 CALM 0 0 0 0 - - -
26/08:30pm 27.1 32.5 23.3 80 2.6 CALM 0 0 0 0 - - -
26/08:00pm 28.0 32.2 23.2 75 3.3 NW 6 7 3 4 - - -
26/07:30pm 28.6 32.2 23.1 72 3.8 NW 9 11 5 6 - - -
26/07:00pm 29.0 32.2 23.0 70 4.1 NW 11 15 6 8 - - -
26/06:30pm 29.4 32.6 23.1 69 4.3 NW 11 17 6 9 - - 0.0
26/06:00pm 29.8 33.4 23.0 67 4.7 NW 9 13 5 7 - - 0.0
26/05:30pm 30.5 34.3 23.4 66 4.9 NW 9 15 5 8 - - 0.0
26/05:00pm 31.0 34.1 23.6 64 5.1 NW 13 19 7 10 - - 0.0
26/04:30pm 30.8 34.2 24.0 67 4.7 WNW 13 20 7 11 - - 0.0
26/04:00pm 31.4 34.9 23.5 63 5.5 NW 11 20 6 11 - - 0.0
26/03:30pm 31.1 34.7 23.0 62 5.6 N 9 15 5 8 - - 0.0
26/03:00pm 31.5 35.1 23.1 61 5.8 N 9 15 5 8 - - 0.0
26/02:30pm 31.6 35.0 23.4 61 5.7 N 11 19 6 10 - - 0.0
26/02:00pm 33.2 36.6 24.1 59 6.4 N 13 20 7 11 - - 0.0
26/01:30pm 34.2 39.0 24.5 57 6.8 NNE 7 13 4 7 - - 0.0
26/01:00pm 33.9 38.0 23.9 56 7.0 NNE 9 13 5 7 - - 0.0
26/12:30pm 33.5 37.8 22.6 53 7.5 E 4 7 2 4 - - 0.0
26/12:00pm 33.2 36.6 22.0 51 7.6 SE 7 11 4 6 - - 0.0
26/11:30am 32.6 36.8 23.5 58 6.3 ESE 7 13 4 7 - - 0.0
26/11:00am 32.0 36.2 23.5 60 5.9 ENE 7 9 4 5 - - 0.0
26/10:30am 31.5 35.7 23.1 61 5.8 ESE 6 11 3 6 - - 0.0
26/10:00am 30.6 35.6 23.8 67 4.7 NW 4 7 2 4 - - 0.0
26/09:30am 29.6 33.9 22.6 66 4.8 SSW 4 7 2 4 - - 0.0
26/09:00am 28.9 34.1 22.9 70 4.1 CALM 0 0 0 0 - - 0.0
26/08:30am 28.2 32.7 23.6 76 3.2 ENE 6 7 3 4 - - 0.0
26/08:00am 26.2 31.9 23.7 86 1.7 CALM 0 0 0 0 - - 0.0
26/07:30am 24.9 30.6 23.7 93 0.8 CALM 0 6 0 3 - - 0.0
26/07:00am 23.4 28.5 22.6 95 0.5 CALM 0 7 0 4 - - 0.0
26/06:30am 23.1 28.0 22.3 95 0.5 CALM 0 0 0 0 - - 0.0
26/06:00am 23.2 28.1 22.4 95 0.5 CALM 0 0 0 0 - - 0.0
26/05:30am 23.3 28.2 22.3 94 0.7 CALM 0 0 0 0 - - 0.0
26/05:00am 23.5 28.0 22.3 93 0.8 SE 2 7 1 4 - - 0.0
26/04:30am 23.8 27.7 22.6 93 0.8 S 6 9 3 5 - - 0.0
26/04:00am 23.8 28.9 22.6 93 0.8 CALM 0 6 0 3 - - 0.0
26/03:30am 23.8 27.7 22.6 93 0.8 SW 6 7 3 4 - - 0.0
26/03:00am 23.9 27.8 22.5 92 0.9 SSW 6 7 3 4 - - 0.0
26/02:30am 24.1 29.2 22.7 92 0.9 CALM 0 0 0 0 - - 0.0
26/02:00am 24.4 28.6 23.2 93 0.8 SW 6 7 3 4 - - 0.0
26/01:30am 24.3 29.2 23.1 93 0.8 SE 2 7 1 4 - - 0.0
26/01:00am 24.3 29.7 23.3 94 0.7 CALM 0 0 0 0 - - 0.0
26/12:30am 24.1 29.2 22.7 92 0.9 CALM 0 0 0 0 - - 0.0
26/12:00am 24.3 29.4 22.7 91 1.1 CALM 0 0 0 0 - - 0.0
 
Date/Time
EST
Temp
°C
App
Temp
°C
Dew
Point
°C
Rel
Hum
%
Delta-T
°C
Wind Press
QNH
hPa
Press
MSL
hPa
Rain since
9am
mm
Dir  Spd
km/h
Gust
km/h
Spd
kts
Gust
kts
25/11:30pm 25.0 30.2 22.9 88 1.4 CALM 0 6 0 3 - - 0.0
25/11:00pm 25.1 29.2 23.2 89 1.3 SSE 7 9 4 5 - - 0.0
25/10:30pm 25.0 29.5 22.9 88 1.4 E 4 7 2 4 - - 0.0

Other Formats:

Comma delimited format used in spreadsheet applications
http://www.bom.gov.au/fwo/IDQ60801/IDQ60801.94288.axf

JavaScript Object Notation format (JSON) in row-major order
http://www.bom.gov.au/fwo/IDQ60801/IDQ60801.94288.json